Time;durP1;ratioP1;P1;durP2;ratioP2;P2;SDS_P1;SDS_P2;PMS_P1;PMS_P2;Temp;Humidity;BMP_temperature;BMP_pressure;BME280_temperature;BME280_humidity;BME280_pressure;Samples;Min_cycle;Max_cycle;Signal;HPM_P1;HPM_P2
2022/04/30 00:02:06;;;;;;;;;;;7.70;93.20;;;;;;4958991;29;19945;-82
2022/04/30 00:04:34;;;;;;;;;;;7.70;93.70;;;;;;4965601;28;19925;-82
2022/04/30 00:07:01;;;;;;;;;;;7.70;94.20;;;;;;4958905;29;19937;-81
2022/04/30 00:09:34;;;;;;;;;;;7.60;94.60;;;;;;4969346;29;19934;-82
2022/04/30 00:12:02;;;;;;;;;;;7.60;94.90;;;;;;4966690;28;19966;-82
2022/04/30 00:14:29;;;;;;;;;;;7.60;95.10;;;;;;4956775;29;19926;-83
2022/04/30 00:16:56;;;;;;;;;;;7.60;95.40;;;;;;4992426;28;19958;-82
2022/04/30 00:19:27;;;;;;;;;;;7.50;95.70;;;;;;4966095;29;19969;-84
2022/04/30 00:21:53;;;;;;;;;;;7.50;96.00;;;;;;4975694;28;19981;-82
2022/04/30 00:24:20;;;;;;;;;;;7.50;96.30;;;;;;4976816;28;19986;-82
2022/04/30 00:26:47;;;;;;;;;;;7.50;96.40;;;;;;4972230;28;19927;-82
2022/04/30 00:29:16;;;;;;;;;;;7.40;96.40;;;;;;4965784;28;19926;-82
2022/04/30 00:31:43;;;;;;;;;;;7.50;96.50;;;;;;4971831;29;19949;-81
2022/04/30 00:34:10;;;;;;;;;;;7.40;96.90;;;;;;4974191;29;19960;-82
2022/04/30 00:36:36;;;;;;;;;;;7.40;97.00;;;;;;4965983;28;19990;-82
2022/04/30 00:39:03;;;;;;;;;;;7.30;97.30;;;;;;4965761;29;20197;-81
2022/04/30 00:41:32;;;;;;;;;;;7.30;97.40;;;;;;4960496;28;19961;-81
2022/04/30 00:43:59;;;;;;;;;;;7.20;97.40;;;;;;4962241;28;19927;-82
2022/04/30 00:46:28;;;;;;;;;;;7.20;97.70;;;;;;4966489;29;20029;-79
2022/04/30 00:48:57;;;;;;;;;;;7.20;97.80;;;;;;4939048;28;20018;-78
2022/04/30 00:51:24;;;;;;;;;;;7.20;97.80;;;;;;4945770;28;19927;-79
2022/04/30 00:53:52;;;;;;;;;;;7.10;97.50;;;;;;4940430;28;19931;-79
2022/04/30 00:56:23;;;;;;;;;;;7.10;97.50;;;;;;5002333;28;20384;-79
2022/04/30 00:58:50;;;;;;;;;;;7.10;97.50;;;;;;4957128;28;20301;-79
2022/04/30 01:01:19;;;;;;;;;;;7.10;98.00;;;;;;4954875;29;19927;-80
2022/04/30 01:03:50;;;;;;;;;;;7.00;97.90;;;;;;4947146;28;19927;-79
2022/04/30 01:06:20;;;;;;;;;;;7.00;98.20;;;;;;4940360;28;19927;-79
2022/04/30 01:08:50;;;;;;;;;;;6.90;98.30;;;;;;4957138;28;20440;-80
2022/04/30 01:11:18;;;;;;;;;;;6.90;98.60;;;;;;4966629;28;19970;-78
2022/04/30 01:13:45;;;;;;;;;;;6.90;98.60;;;;;;4946801;28;19927;-78
2022/04/30 01:16:13;;;;;;;;;;;6.90;98.60;;;;;;4949705;28;20009;-78
2022/04/30 01:18:40;;;;;;;;;;;6.80;98.50;;;;;;4948694;28;20396;-78
2022/04/30 01:21:15;;;;;;;;;;;6.80;98.70;;;;;;4949831;28;19932;-78
2022/04/30 01:23:44;;;;;;;;;;;6.80;98.70;;;;;;4938478;28;19937;-78
2022/04/30 01:26:11;;;;;;;;;;;6.80;98.80;;;;;;4937204;29;20305;-78
2022/04/30 01:28:38;;;;;;;;;;;6.70;98.90;;;;;;4943145;28;20341;-78
2022/04/30 01:37:22;;;;;;;;;;;6.70;99.10;;;;;;4934190;28;19933;-77
2022/04/30 01:39:22;;;;;;;;;;;6.60;99.50;;;;;;4941651;28;19934;-77
2022/04/30 01:41:48;;;;;;;;;;;6.60;99.90;;;;;;4956756;28;19927;-78
2022/04/30 01:44:16;;;;;;;;;;;6.50;99.90;;;;;;4933890;29;19958;-78
2022/04/30 01:46:45;;;;;;;;;;;6.50;99.90;;;;;;4945549;28;20271;-78
2022/04/30 01:49:15;;;;;;;;;;;6.50;99.90;;;;;;4942951;28;19933;-77
2022/04/30 01:51:48;;;;;;;;;;;6.40;99.90;;;;;;4944186;28;19957;-77
2022/04/30 01:54:15;;;;;;;;;;;6.40;99.90;;;;;;4945550;28;19933;-77
2022/04/30 01:56:49;;;;;;;;;;;6.40;99.90;;;;;;4946332;28;19933;-77
2022/04/30 01:59:16;;;;;;;;;;;6.40;99.90;;;;;;4941405;29;19933;-77
2022/04/30 02:01:44;;;;;;;;;;;6.40;99.90;;;;;;4935252;28;19996;-77
2022/04/30 02:04:11;;;;;;;;;;;6.40;99.90;;;;;;4955199;28;19930;-79
2022/04/30 02:06:38;;;;;;;;;;;6.30;99.90;;;;;;4937454;28;19981;-80
2022/04/30 02:09:19;;;;;;;;;;;6.30;99.90;;;;;;4982590;28;20017;-78
2022/04/30 02:11:47;;;;;;;;;;;6.30;99.90;;;;;;4937115;28;20386;-78
2022/04/30 02:14:15;;;;;;;;;;;6.30;99.90;;;;;;4950026;28;20013;-79
2022/04/30 02:16:42;;;;;;;;;;;6.20;99.90;;;;;;4955073;28;19926;-78
2022/04/30 02:19:09;;;;;;;;;;;6.20;99.90;;;;;;4948033;28;19968;-78
2022/04/30 02:21:36;;;;;;;;;;;6.20;99.90;;;;;;4938356;28;19927;-78
2022/04/30 02:24:03;;;;;;;;;;;6.10;99.90;;;;;;4944726;28;20355;-79
2022/04/30 02:26:30;;;;;;;;;;;6.10;99.90;;;;;;4936612;28;19933;-79
2022/04/30 02:28:59;;;;;;;;;;;6.10;99.90;;;;;;4964206;28;19934;-79
2022/04/30 02:31:39;;;;;;;;;;;6.00;99.90;;;;;;4956794;28;19934;-80
2022/04/30 02:34:06;;;;;;;;;;;6.00;99.90;;;;;;5009303;28;19931;-79
2022/04/30 02:36:34;;;;;;;;;;;6.00;99.90;;;;;;4952484;28;19926;-79
2022/04/30 02:39:00;;;;;;;;;;;5.90;99.90;;;;;;4999525;28;19971;-80
2022/04/30 02:41:28;;;;;;;;;;;5.90;99.90;;;;;;4957711;28;19934;-80
2022/04/30 02:43:56;;;;;;;;;;;5.90;99.90;;;;;;4950339;28;20412;-79
2022/04/30 02:46:26;;;;;;;;;;;5.90;99.90;;;;;;4948214;29;19930;-79
2022/04/30 02:48:53;;;;;;;;;;;5.90;99.90;;;;;;4953960;28;20393;-79
2022/04/30 02:51:20;;;;;;;;;;;5.80;99.90;;;;;;4947877;28;20127;-79
2022/04/30 02:53:47;;;;;;;;;;;5.80;99.90;;;;;;4988367;28;19967;-79
2022/04/30 02:56:13;;;;;;;;;;;5.70;99.90;;;;;;4938682;28;19938;-78
2022/04/30 03:01:26;;;;;;;;;;;5.70;99.90;;;;;;4949789;28;19941;-79
2022/04/30 03:03:52;;;;;;;;;;;5.70;99.90;;;;;;4937732;28;19926;-79
2022/04/30 03:06:19;;;;;;;;;;;5.60;99.90;;;;;;4941983;28;19927;-78
2022/04/30 03:08:47;;;;;;;;;;;5.70;99.90;;;;;;4940594;28;20381;-78
2022/04/30 03:11:14;;;;;;;;;;;5.60;99.90;;;;;;4949929;28;19935;-78
2022/04/30 03:13:41;;;;;;;;;;;5.50;99.90;;;;;;4948071;28;20370;-78
2022/04/30 03:21:53;;;;;;;;;;;5.60;99.90;;;;;;4949077;28;20064;-79
2022/04/30 03:24:20;;;;;;;;;;;5.50;99.90;;;;;;4949947;28;20389;-79
2022/04/30 03:26:47;;;;;;;;;;;5.50;99.90;;;;;;4974902;28;20007;-80
2022/04/30 03:29:14;;;;;;;;;;;5.50;99.90;;;;;;4948818;28;19934;-79
2022/04/30 03:31:41;;;;;;;;;;;5.50;99.90;;;;;;4952909;28;20293;-80
2022/04/30 03:34:18;;;;;;;;;;;5.50;99.90;;;;;;4972795;28;19941;-81
2022/04/30 03:36:45;;;;;;;;;;;5.50;99.90;;;;;;4953068;28;20317;-79
2022/04/30 03:39:15;;;;;;;;;;;5.40;99.90;;;;;;4943995;28;20305;-80
2022/04/30 03:41:41;;;;;;;;;;;5.40;99.90;;;;;;4933616;28;20013;-79
2022/04/30 03:44:08;;;;;;;;;;;5.40;99.90;;;;;;4937184;28;19934;-79
2022/04/30 03:46:35;;;;;;;;;;;5.30;99.90;;;;;;4935956;28;19939;-79
2022/04/30 03:49:04;;;;;;;;;;;5.40;99.90;;;;;;4953425;28;19927;-79
2022/04/30 03:51:36;;;;;;;;;;;5.30;99.90;;;;;;4942995;28;19927;-80
2022/04/30 03:54:05;;;;;;;;;;;5.30;99.90;;;;;;4944331;28;19976;-78
2022/04/30 03:56:49;;;;;;;;;;;5.20;99.90;;;;;;4948168;28;20309;-79
2022/04/30 03:59:16;;;;;;;;;;;5.20;99.90;;;;;;4945823;28;20010;-79
2022/04/30 04:01:42;;;;;;;;;;;5.20;99.90;;;;;;4931563;28;19927;-79
2022/04/30 04:04:10;;;;;;;;;;;5.20;99.90;;;;;;4941931;28;20021;-79
2022/04/30 04:06:39;;;;;;;;;;;5.20;99.90;;;;;;4940648;28;19926;-80
2022/04/30 04:09:05;;;;;;;;;;;5.20;99.90;;;;;;4968259;28;19925;-78
2022/04/30 04:11:32;;;;;;;;;;;5.20;99.90;;;;;;4949165;28;20022;-79
2022/04/30 04:19:45;;;;;;;;;;;5.10;99.90;;;;;;4942393;28;19941;-78
2022/04/30 04:22:13;;;;;;;;;;;5.10;99.90;;;;;;4938850;28;19965;-80
2022/04/30 04:27:25;;;;;;;;;;;5.00;99.90;;;;;;4948819;28;20330;-80
2022/04/30 04:29:52;;;;;;;;;;;4.90;99.90;;;;;;4935752;28;19981;-81
2022/04/30 04:32:18;;;;;;;;;;;4.90;99.90;;;;;;4933938;28;20057;-80
2022/04/30 04:34:45;;;;;;;;;;;4.90;99.90;;;;;;4946156;28;20032;-80
2022/04/30 04:37:16;;;;;;;;;;;4.90;99.90;;;;;;4945416;28;19985;-79
2022/04/30 04:39:45;;;;;;;;;;;4.90;99.90;;;;;;4948089;28;19927;-80
2022/04/30 04:42:12;;;;;;;;;;;4.90;99.90;;;;;;4936979;28;19931;-80
2022/04/30 04:44:41;;;;;;;;;;;4.90;99.90;;;;;;4941201;28;20452;-80
2022/04/30 04:47:08;;;;;;;;;;;5.00;99.90;;;;;;4939882;28;19940;-80
2022/04/30 04:49:36;;;;;;;;;;;5.00;99.90;;;;;;4945365;28;19938;-80
2022/04/30 04:52:03;;;;;;;;;;;5.00;99.90;;;;;;4949528;28;19927;-80
2022/04/30 04:54:31;;;;;;;;;;;5.00;99.90;;;;;;4963165;28;19972;-79
2022/04/30 04:56:57;;;;;;;;;;;4.90;99.90;;;;;;4963003;28;19969;-70
2022/04/30 04:59:24;;;;;;;;;;;4.90;99.90;;;;;;4978997;28;19938;-62
2022/04/30 05:17:28;;;;;;;;;;;5.30;99.90;;;;;;5256509;23;19911;-65
2022/04/30 05:19:55;;;;;;;;;;;5.30;99.90;;;;;;4978532;28;19933;-69
2022/04/30 05:22:21;;;;;;;;;;;5.40;99.90;;;;;;4978476;28;19915;-76
2022/04/30 05:24:50;;;;;;;;;;;5.50;99.90;;;;;;4968464;28;19938;-73
2022/04/30 05:27:23;;;;;;;;;;;5.60;99.90;;;;;;4959384;28;19945;-73
2022/04/30 05:29:49;;;;;;;;;;;5.60;99.90;;;;;;4959081;28;19911;-70
2022/04/30 05:32:16;;;;;;;;;;;5.70;99.90;;;;;;4959130;28;19950;-66
2022/04/30 05:34:46;;;;;;;;;;;5.80;99.90;;;;;;4958896;28;19911;-79
2022/04/30 05:37:16;;;;;;;;;;;5.80;99.90;;;;;;4958722;28;19978;-66
2022/04/30 05:39:48;;;;;;;;;;;5.90;99.90;;;;;;4958356;28;19942;-75
2022/04/30 05:42:14;;;;;;;;;;;5.90;99.90;;;;;;4958342;28;19918;-77
2022/04/30 05:44:41;;;;;;;;;;;6.00;99.90;;;;;;4964049;28;20003;-75
2022/04/30 05:47:11;;;;;;;;;;;6.20;99.90;;;;;;4976295;28;19911;-69
2022/04/30 05:49:43;;;;;;;;;;;6.20;99.90;;;;;;4971717;28;19918;-69
2022/04/30 05:52:11;;;;;;;;;;;6.30;99.90;;;;;;5079260;28;19909;-68
2022/04/30 05:54:44;;;;;;;;;;;6.40;99.90;;;;;;5004777;28;19911;-74
2022/04/30 05:57:10;;;;;;;;;;;6.50;99.90;;;;;;4959408;28;19945;-69
2022/04/30 05:59:37;;;;;;;;;;;6.60;99.90;;;;;;4966188;28;19910;-72
2022/04/30 06:04:39;;;;;;;;;;;6.70;99.90;;;;;;5796589;23;19910;-75
2022/04/30 06:07:06;;;;;;;;;;;6.80;99.90;;;;;;4993064;28;19977;-64
2022/04/30 06:09:34;;;;;;;;;;;7.00;99.90;;;;;;4992409;28;19911;-73
2022/04/30 06:12:05;;;;;;;;;;;7.00;99.90;;;;;;4984091;28;20230;-73
2022/04/30 06:14:31;;;;;;;;;;;7.20;99.90;;;;;;4984188;28;19911;-78
2022/04/30 06:16:59;;;;;;;;;;;7.30;99.90;;;;;;4984228;28;19911;-65
2022/04/30 06:19:25;;;;;;;;;;;7.60;99.90;;;;;;4984333;28;19917;-73
2022/04/30 06:21:53;;;;;;;;;;;8.00;99.90;;;;;;4989561;28;19969;-70
2022/04/30 06:24:19;;;;;;;;;;;8.30;99.90;;;;;;4985636;28;19911;-79
2022/04/30 06:26:47;;;;;;;;;;;8.40;99.90;;;;;;4965751;28;19927;-79
2022/04/30 06:29:15;;;;;;;;;;;8.20;99.90;;;;;;4963663;28;20108;-79
2022/04/30 06:31:42;;;;;;;;;;;8.20;99.90;;;;;;4967867;29;19982;-80
2022/04/30 06:34:08;;;;;;;;;;;8.30;99.90;;;;;;4956349;28;19926;-79
2022/04/30 06:36:36;;;;;;;;;;;8.40;99.90;;;;;;4958135;28;19982;-77
2022/04/30 06:39:03;;;;;;;;;;;8.30;99.90;;;;;;4961879;28;19931;-80
2022/04/30 06:41:36;;;;;;;;;;;8.30;99.90;;;;;;4965844;28;19933;-79
2022/04/30 06:44:04;;;;;;;;;;;8.50;99.90;;;;;;4963200;28;19963;-80
2022/04/30 06:46:31;;;;;;;;;;;8.20;99.90;;;;;;4967789;28;19930;-79
2022/04/30 06:48:58;;;;;;;;;;;8.30;99.90;;;;;;4974440;28;19920;-78
2022/04/30 06:51:25;;;;;;;;;;;8.50;99.90;;;;;;4974517;28;19930;-79
2022/04/30 06:59:22;;;;;;;;;;;9.20;99.90;;;;;;4967661;28;19995;-78
2022/04/30 07:01:57;;;;;;;;;;;9.30;99.10;;;;;;4944563;28;19927;-77
2022/04/30 07:04:24;;;;;;;;;;;9.20;98.20;;;;;;4941311;28;19933;-79
2022/04/30 07:06:51;;;;;;;;;;;9.00;98.80;;;;;;4945121;28;19927;-81
2022/04/30 07:09:18;;;;;;;;;;;9.10;98.60;;;;;;4967135;28;19927;-80
2022/04/30 07:11:45;;;;;;;;;;;10.10;96.80;;;;;;4935492;28;19927;-88
2022/04/30 07:14:12;;;;;;;;;;;10.40;95.50;;;;;;4941453;28;19938;-78
2022/04/30 07:16:40;;;;;;;;;;;10.80;92.80;;;;;;4969793;28;19927;-79
2022/04/30 07:19:06;;;;;;;;;;;10.70;92.70;;;;;;4939759;28;19934;-83
2022/04/30 07:21:33;;;;;;;;;;;10.00;93.50;;;;;;4938023;28;20017;-85
2022/04/30 07:24:00;;;;;;;;;;;10.70;93.80;;;;;;4940015;28;20030;-82
2022/04/30 07:26:27;;;;;;;;;;;12.00;91.40;;;;;;4935269;28;20243;-79
2022/04/30 07:28:54;;;;;;;;;;;13.70;76.50;;;;;;4939693;28;20193;-78
2022/04/30 07:31:21;;;;;;;;;;;12.70;68.80;;;;;;4943584;28;19934;-78
2022/04/30 07:33:51;;;;;;;;;;;11.00;76.40;;;;;;4936583;28;20654;-81
2022/04/30 07:36:18;;;;;;;;;;;10.00;82.20;;;;;;4944045;28;20374;-80
2022/04/30 07:38:45;;;;;;;;;;;9.70;84.40;;;;;;4944673;28;20394;-79
2022/04/30 07:41:11;;;;;;;;;;;9.60;85.60;;;;;;4953905;28;19954;-78
2022/04/30 07:43:38;;;;;;;;;;;9.60;87.70;;;;;;4944086;28;19917;-78
2022/04/30 07:46:05;;;;;;;;;;;9.60;88.10;;;;;;4959911;28;19937;-83
2022/04/30 07:48:32;;;;;;;;;;;10.70;79.00;;;;;;4949700;28;19942;-78
2022/04/30 07:53:44;;;;;;;;;;;10.50;76.60;;;;;;4943360;28;19926;-78
2022/04/30 07:56:11;;;;;;;;;;;10.30;79.80;;;;;;4941787;28;19931;-79
2022/04/30 07:58:37;;;;;;;;;;;10.40;75.90;;;;;;4943181;28;19930;-78
2022/04/30 08:01:05;;;;;;;;;;;10.40;73.80;;;;;;4948967;28;20182;-81
2022/04/30 08:03:32;;;;;;;;;;;10.00;76.00;;;;;;4957335;28;19930;-80
2022/04/30 08:06:00;;;;;;;;;;;9.80;77.80;;;;;;4942620;28;19934;-80
2022/04/30 08:08:27;;;;;;;;;;;9.60;77.40;;;;;;4945052;28;20384;-78
2022/04/30 08:10:54;;;;;;;;;;;9.80;78.00;;;;;;4941496;28;20026;-78
2022/04/30 08:13:20;;;;;;;;;;;11.10;74.50;;;;;;4939191;28;19974;-79
2022/04/30 08:15:47;;;;;;;;;;;10.30;72.70;;;;;;4974704;28;19961;-78
2022/04/30 08:18:14;;;;;;;;;;;10.00;74.20;;;;;;4945733;28;20001;-78
2022/04/30 08:20:41;;;;;;;;;;;9.80;76.70;;;;;;4941945;28;19934;-75
2022/04/30 08:23:09;;;;;;;;;;;9.70;77.20;;;;;;4943415;28;19933;-76
2022/04/30 08:25:36;;;;;;;;;;;9.90;78.10;;;;;;4943525;28;20472;-76
2022/04/30 08:28:03;;;;;;;;;;;9.90;76.70;;;;;;4943018;28;19926;-77
2022/04/30 08:30:31;;;;;;;;;;;9.70;78.10;;;;;;4945926;28;19934;-77
2022/04/30 08:32:58;;;;;;;;;;;10.10;76.50;;;;;;4935822;28;20021;-77
2022/04/30 08:35:25;;;;;;;;;;;10.10;76.60;;;;;;4937313;28;19926;-77
2022/04/30 08:37:51;;;;;;;;;;;10.10;77.20;;;;;;4943040;28;20009;-76
2022/04/30 08:40:19;;;;;;;;;;;10.20;76.50;;;;;;4937803;28;20449;-81
2022/04/30 08:42:47;;;;;;;;;;;11.50;72.90;;;;;;4942401;28;19930;-78
2022/04/30 08:45:13;;;;;;;;;;;12.40;67.00;;;;;;4951213;28;19942;-78
2022/04/30 08:47:40;;;;;;;;;;;14.10;61.30;;;;;;4935884;28;19926;-79
2022/04/30 08:50:08;;;;;;;;;;;13.60;57.10;;;;;;4934598;28;19926;-82
2022/04/30 08:52:37;;;;;;;;;;;13.50;55.90;;;;;;4940608;28;19926;-77
2022/04/30 08:55:04;;;;;;;;;;;13.50;55.00;;;;;;4933247;28;19988;-77
2022/04/30 08:57:32;;;;;;;;;;;12.80;55.90;;;;;;4941375;28;20001;-78
2022/04/30 09:00:02;;;;;;;;;;;12.60;53.00;;;;;;4932155;28;20033;-77
2022/04/30 09:02:28;;;;;;;;;;;13.10;54.10;;;;;;4948351;28;19931;-77
2022/04/30 09:04:55;;;;;;;;;;;13.30;50.40;;;;;;4940192;28;19924;-74
2022/04/30 09:07:22;;;;;;;;;;;15.20;45.80;;;;;;4943060;28;19926;-75
2022/04/30 09:09:54;;;;;;;;;;;14.50;46.10;;;;;;4940321;28;19941;-73
2022/04/30 09:12:21;;;;;;;;;;;13.10;47.70;;;;;;4941490;28;20348;-78
2022/04/30 09:14:49;;;;;;;;;;;11.70;52.50;;;;;;4963697;28;20084;-76
2022/04/30 09:17:16;;;;;;;;;;;11.50;55.90;;;;;;4950840;28;20338;-79
2022/04/30 09:19:46;;;;;;;;;;;11.50;58.20;;;;;;4954199;28;20003;-80
2022/04/30 09:22:13;;;;;;;;;;;11.40;56.80;;;;;;4963156;28;19941;-76
2022/04/30 09:24:44;;;;;;;;;;;11.50;59.00;;;;;;4943689;28;19927;-75
2022/04/30 09:27:14;;;;;;;;;;;11.70;59.30;;;;;;4950977;28;19930;-75
2022/04/30 09:29:40;;;;;;;;;;;11.70;57.30;;;;;;4940555;28;19938;-76
2022/04/30 09:32:09;;;;;;;;;;;11.80;54.40;;;;;;4938262;28;19933;-77
2022/04/30 09:40:17;;;;;;;;;;;11.30;57.40;;;;;;4937616;29;19949;-76
2022/04/30 09:42:44;;;;;;;;;;;11.70;58.00;;;;;;4940868;28;19937;-76
2022/04/30 09:45:22;;;;;;;;;;;11.70;59.00;;;;;;4942143;28;19931;-76
2022/04/30 09:47:51;;;;;;;;;;;11.70;58.20;;;;;;4936993;28;20302;-76
2022/04/30 09:55:48;;;;;;;;;;;12.00;57.90;;;;;;4929318;28;19926;-76
2022/04/30 09:58:16;;;;;;;;;;;11.60;56.50;;;;;;4941627;29;19933;-76
2022/04/30 10:00:43;;;;;;;;;;;11.50;57.50;;;;;;4940865;28;20356;-76
2022/04/30 10:03:11;;;;;;;;;;;11.50;58.30;;;;;;4940885;28;20000;-75
2022/04/30 10:05:38;;;;;;;;;;;11.60;57.10;;;;;;4946869;28;19926;-74
2022/04/30 10:08:05;;;;;;;;;;;11.90;57.20;;;;;;4953486;28;19934;-77
2022/04/30 10:10:36;;;;;;;;;;;12.20;55.40;;;;;;4945521;28;19931;-74
2022/04/30 10:13:08;;;;;;;;;;;11.70;55.40;;;;;;4936446;28;19926;-76
2022/04/30 10:15:38;;;;;;;;;;;11.50;56.40;;;;;;4947664;28;19926;-76
2022/04/30 10:18:08;;;;;;;;;;;12.10;57.10;;;;;;4953647;28;20737;-76
2022/04/30 10:20:37;;;;;;;;;;;12.70;54.00;;;;;;4947037;28;19927;-80
2022/04/30 10:23:05;;;;;;;;;;;12.30;54.60;;;;;;4939514;28;19934;-76
2022/04/30 10:25:32;;;;;;;;;;;12.10;55.70;;;;;;4939752;28;19962;-75
2022/04/30 10:27:59;;;;;;;;;;;12.60;53.10;;;;;;4934375;28;19935;-76
2022/04/30 10:30:27;;;;;;;;;;;12.90;52.80;;;;;;4936207;28;20488;-74
2022/04/30 10:33:03;;;;;;;;;;;13.00;51.50;;;;;;4942208;28;19989;-79
2022/04/30 10:35:31;;;;;;;;;;;12.50;53.10;;;;;;4935054;28;20060;-75
2022/04/30 10:38:08;;;;;;;;;;;12.30;51.70;;;;;;4933572;28;20038;-76
2022/04/30 10:40:39;;;;;;;;;;;12.10;53.10;;;;;;4950769;28;20354;-78
2022/04/30 10:43:14;;;;;;;;;;;12.50;51.80;;;;;;4930707;28;19935;-75
2022/04/30 10:45:41;;;;;;;;;;;13.30;47.20;;;;;;4943510;28;19933;-76
2022/04/30 10:48:08;;;;;;;;;;;13.20;47.20;;;;;;4938480;28;19933;-77
2022/04/30 10:50:34;;;;;;;;;;;12.40;49.30;;;;;;4937832;28;19926;-76
2022/04/30 10:53:01;;;;;;;;;;;12.50;51.70;;;;;;4940510;28;20398;-76
2022/04/30 10:55:30;;;;;;;;;;;13.30;49.10;;;;;;4945459;28;19933;-75
2022/04/30 10:57:57;;;;;;;;;;;13.40;46.80;;;;;;4949956;28;19930;-77
2022/04/30 11:00:26;;;;;;;;;;;12.80;46.70;;;;;;4938146;28;19927;-75
2022/04/30 11:02:53;;;;;;;;;;;12.60;47.50;;;;;;4935762;28;19950;-77
2022/04/30 11:05:22;;;;;;;;;;;13.20;46.30;;;;;;4933944;28;19938;-75
2022/04/30 11:07:49;;;;;;;;;;;13.80;44.30;;;;;;4935358;28;19933;-79
2022/04/30 11:10:16;;;;;;;;;;;13.30;43.80;;;;;;4938433;28;19930;-79
2022/04/30 11:12:44;;;;;;;;;;;12.80;45.10;;;;;;4941632;28;19958;-81
2022/04/30 11:15:11;;;;;;;;;;;13.50;43.70;;;;;;4936721;28;19926;-78
2022/04/30 11:17:45;;;;;;;;;;;14.00;42.60;;;;;;4935517;28;19927;-79
2022/04/30 11:20:12;;;;;;;;;;;13.10;44.30;;;;;;4941731;28;19981;-79
2022/04/30 11:22:39;;;;;;;;;;;13.20;46.80;;;;;;4965548;23;19927;-81
2022/04/30 11:25:05;;;;;;;;;;;13.00;45.30;;;;;;4932133;28;20413;-77
2022/04/30 11:27:33;;;;;;;;;;;13.20;45.90;;;;;;4952874;28;20501;-80
2022/04/30 11:30:03;;;;;;;;;;;13.30;47.00;;;;;;4929225;28;19974;-78
2022/04/30 11:32:31;;;;;;;;;;;13.30;45.00;;;;;;4931721;28;19962;-80
2022/04/30 11:35:08;;;;;;;;;;;13.90;43.70;;;;;;4932810;28;20448;-83
2022/04/30 11:37:38;;;;;;;;;;;13.90;43.00;;;;;;4945619;28;19927;-82
2022/04/30 11:40:08;;;;;;;;;;;13.60;44.40;;;;;;4941148;28;19934;-85
2022/04/30 11:42:34;;;;;;;;;;;13.30;45.20;;;;;;4930761;28;19977;-81
2022/04/30 11:45:03;;;;;;;;;;;13.70;44.10;;;;;;4938056;28;20420;-82
2022/04/30 11:47:33;;;;;;;;;;;13.90;43.30;;;;;;4932902;28;19962;-81
2022/04/30 11:50:05;;;;;;;;;;;12.90;44.00;;;;;;4931804;28;20173;-81
2022/04/30 11:52:32;;;;;;;;;;;12.50;44.80;;;;;;4922525;28;20013;-79
2022/04/30 11:55:01;;;;;;;;;;;12.60;46.70;;;;;;4932081;28;19970;-84
2022/04/30 11:57:28;;;;;;;;;;;12.50;47.90;;;;;;4927886;28;19930;-83
2022/04/30 11:59:56;;;;;;;;;;;12.90;48.00;;;;;;4929573;28;19926;-81
2022/04/30 12:02:27;;;;;;;;;;;13.30;47.40;;;;;;4938874;28;19927;-83
2022/04/30 12:04:54;;;;;;;;;;;13.60;45.50;;;;;;4943083;28;19974;-81
2022/04/30 12:07:20;;;;;;;;;;;13.80;45.30;;;;;;4932923;28;20025;-80
2022/04/30 12:09:50;;;;;;;;;;;14.10;45.40;;;;;;4936736;28;19973;-78
2022/04/30 12:12:18;;;;;;;;;;;14.10;44.80;;;;;;4933301;28;19934;-78
2022/04/30 12:14:45;;;;;;;;;;;14.00;44.40;;;;;;4960437;28;19931;-82
2022/04/30 12:17:12;;;;;;;;;;;14.00;44.20;;;;;;4928762;28;19931;-76
2022/04/30 12:25:10;;;;;;;;;;;14.00;41.50;;;;;;4928421;28;20369;-79
2022/04/30 12:27:37;;;;;;;;;;;14.30;41.70;;;;;;4926281;28;20433;-78
2022/04/30 12:30:09;;;;;;;;;;;14.70;40.40;;;;;;4926184;28;19945;-80
2022/04/30 12:32:46;;;;;;;;;;;15.00;39.90;;;;;;4932739;28;20037;-83
2022/04/30 12:35:14;;;;;;;;;;;15.40;39.50;;;;;;4926844;28;19934;-83
2022/04/30 12:37:41;;;;;;;;;;;15.30;38.20;;;;;;4924635;28;19934;-80
2022/04/30 12:40:09;;;;;;;;;;;15.50;39.00;;;;;;4926218;28;20326;-83
2022/04/30 12:42:40;;;;;;;;;;;15.60;38.00;;;;;;4930653;28;19993;-83
2022/04/30 12:45:07;;;;;;;;;;;15.40;38.30;;;;;;4923682;28;19927;-80
2022/04/30 12:47:37;;;;;;;;;;;15.60;38.50;;;;;;4971463;28;19935;-84
2022/04/30 12:50:04;;;;;;;;;;;15.50;39.50;;;;;;4937276;28;20298;-83
2022/04/30 12:52:32;;;;;;;;;;;15.20;39.20;;;;;;4925919;28;20445;-87
2022/04/30 12:54:58;;;;;;;;;;;15.00;40.20;;;;;;4932421;28;19927;-83
2022/04/30 12:57:25;;;;;;;;;;;14.90;39.70;;;;;;4929452;28;19927;-84
2022/04/30 12:59:53;;;;;;;;;;;14.40;40.10;;;;;;4973912;28;20021;-85
2022/04/30 13:02:22;;;;;;;;;;;14.30;41.10;;;;;;4927401;28;19931;-80
2022/04/30 13:04:50;;;;;;;;;;;14.20;42.00;;;;;;4929298;28;20314;-84
2022/04/30 13:07:17;;;;;;;;;;;14.10;42.10;;;;;;4928503;28;19931;-87
2022/04/30 13:15:13;;;;;;;;;;;14.00;42.30;;;;;;4923713;28;20051;-83
2022/04/30 13:17:40;;;;;;;;;;;13.60;43.20;;;;;;4928535;28;19962;-87
2022/04/30 13:20:07;;;;;;;;;;;13.80;42.60;;;;;;4925149;28;20352;-86
2022/04/30 13:22:33;;;;;;;;;;;14.00;42.50;;;;;;4925288;28;19927;-86
2022/04/30 13:25:01;;;;;;;;;;;14.10;40.90;;;;;;4934940;28;19927;-85
2022/04/30 13:28:35;;;;;;;;;;;13.40;44.60;;;;;;5081322;27;19917;-86
2022/04/30 13:31:02;;;;;;;;;;;13.00;46.10;;;;;;5058017;28;19939;-86
2022/04/30 13:33:29;;;;;;;;;;;12.60;47.60;;;;;;5063746;28;19931;-88
2022/04/30 13:35:56;;;;;;;;;;;12.60;49.20;;;;;;5072940;28;20383;-87
2022/04/30 13:38:23;;;;;;;;;;;12.30;49.90;;;;;;5063015;28;20011;-83
2022/04/30 13:40:50;;;;;;;;;;;12.00;51.30;;;;;;5058150;28;19985;-80
2022/04/30 13:43:16;;;;;;;;;;;12.10;52.80;;;;;;5074886;28;19933;-87
2022/04/30 13:45:44;;;;;;;;;;;12.10;52.90;;;;;;5067398;28;20024;-89
2022/04/30 13:48:11;;;;;;;;;;;12.10;52.40;;;;;;5067123;28;20524;-87
2022/04/30 13:50:43;;;;;;;;;;;12.10;52.40;;;;;;5062626;28;19924;-92
2022/04/30 13:53:10;;;;;;;;;;;12.30;52.80;;;;;;5064694;28;20467;-86
2022/04/30 13:55:37;;;;;;;;;;;12.00;52.40;;;;;;5069322;28;19970;-85
2022/04/30 13:58:04;;;;;;;;;;;12.10;53.40;;;;;;5066384;28;19944;-87
2022/04/30 14:00:30;;;;;;;;;;;12.10;53.60;;;;;;5066382;28;19940;-80
2022/04/30 14:02:58;;;;;;;;;;;12.20;53.10;;;;;;5061447;28;19924;-89
2022/04/30 14:05:25;;;;;;;;;;;12.00;51.60;;;;;;5061650;28;20296;-87
2022/04/30 14:07:52;;;;;;;;;;;11.90;52.00;;;;;;5057627;28;20304;-86
2022/04/30 14:10:21;;;;;;;;;;;12.10;52.80;;;;;;5057086;28;19925;-87
2022/04/30 14:12:48;;;;;;;;;;;12.20;51.70;;;;;;5059069;28;19931;-88
2022/04/30 14:15:14;;;;;;;;;;;12.00;52.60;;;;;;5064833;28;19979;-84
2022/04/30 14:20:25;;;;;;;;;;;11.90;53.00;;;;;;5060987;28;19935;-88
2022/04/30 14:22:53;;;;;;;;;;;11.90;51.40;;;;;;5061857;28;19971;-82
2022/04/30 14:25:22;;;;;;;;;;;11.60;52.70;;;;;;5065268;28;19924;-86
2022/04/30 14:27:49;;;;;;;;;;;11.60;52.90;;;;;;5075066;28;20003;-86
2022/04/30 14:30:17;;;;;;;;;;;11.70;53.20;;;;;;5068088;28;20024;-83
2022/04/30 14:32:44;;;;;;;;;;;11.70;53.10;;;;;;5063997;28;20011;-88
2022/04/30 14:35:11;;;;;;;;;;;11.80;54.00;;;;;;5064106;28;19925;-75
2022/04/30 14:37:39;;;;;;;;;;;12.20;52.60;;;;;;5061644;28;19932;-74
2022/04/30 14:40:07;;;;;;;;;;;12.10;51.50;;;;;;5048730;28;19931;-75
2022/04/30 14:42:34;;;;;;;;;;;11.80;52.00;;;;;;5047225;28;20335;-78
2022/04/30 14:45:01;;;;;;;;;;;12.10;52.10;;;;;;5049078;28;20392;-76
2022/04/30 14:47:27;;;;;;;;;;;12.40;51.60;;;;;;5044857;28;19931;-76
2022/04/30 14:49:55;;;;;;;;;;;12.60;51.50;;;;;;5050460;28;20019;-76
2022/04/30 14:52:22;;;;;;;;;;;12.60;51.40;;;;;;5052095;28;19992;-83
2022/04/30 14:54:50;;;;;;;;;;;12.40;51.10;;;;;;5053259;28;19983;-82
2022/04/30 14:57:16;;;;;;;;;;;12.40;53.00;;;;;;5051984;28;19925;-84
2022/04/30 14:59:43;;;;;;;;;;;12.60;51.90;;;;;;5050278;28;19925;-85
2022/04/30 15:02:10;;;;;;;;;;;12.20;52.70;;;;;;5052681;28;20677;-84
2022/04/30 15:04:37;;;;;;;;;;;12.00;53.40;;;;;;5045548;28;19935;-85
2022/04/30 15:07:04;;;;;;;;;;;11.90;54.80;;;;;;5050951;28;19931;-82
2022/04/30 15:09:31;;;;;;;;;;;11.90;55.20;;;;;;5052597;28;20007;-83
2022/04/30 15:11:59;;;;;;;;;;;11.90;55.90;;;;;;5050623;28;20020;-82
2022/04/30 15:14:25;;;;;;;;;;;11.90;55.90;;;;;;5052398;28;20315;-86
2022/04/30 15:16:52;;;;;;;;;;;12.10;56.70;;;;;;5047895;28;19976;-85
2022/04/30 15:19:19;;;;;;;;;;;12.30;55.10;;;;;;5052260;28;20012;-86
2022/04/30 15:21:45;;;;;;;;;;;12.50;53.60;;;;;;5054125;28;19925;-83
2022/04/30 15:24:12;;;;;;;;;;;12.10;52.60;;;;;;5055322;28;19925;-84
2022/04/30 15:26:39;;;;;;;;;;;11.90;53.00;;;;;;5054539;28;19925;-87
2022/04/30 15:29:07;;;;;;;;;;;12.00;54.70;;;;;;5048903;28;19978;-85
2022/04/30 15:31:35;;;;;;;;;;;12.30;52.60;;;;;;5053183;28;19933;-83
2022/04/30 15:34:01;;;;;;;;;;;12.40;51.50;;;;;;5049367;28;19931;-83
2022/04/30 15:36:29;;;;;;;;;;;12.30;52.20;;;;;;5051133;28;19931;-83
2022/04/30 15:38:56;;;;;;;;;;;12.20;52.50;;;;;;5052128;28;19928;-84
2022/04/30 15:41:24;;;;;;;;;;;12.20;52.10;;;;;;5051670;28;19935;-79
2022/04/30 15:43:51;;;;;;;;;;;12.00;52.30;;;;;;5051899;28;19976;-87